Terminal Aerodrome Forecast
Issued by NWS

Home | Current Version | Previous Version | Text Only | Print | Product List | Glossary On
Versions: 1 2 3 4 5 6 7 8 9 10 11 12 13 14 15 16 17 18 19 20 21
000
FTUS46 KSGX 211700
TAFSNA
TAF
KSNA 211731Z 2118/2218 VRB03KT P6SM SCT018
     FM211900 23008KT P6SM SKC
     FM220300 VRB04KT P6SM FEW012
      TEMPO 2209/2212 6SM BR BKN012=

USA.gov is the U.S. government's official web portal to all federal, state and local government web resources and services.